Time;durP1;ratioP1;P1;durP2;ratioP2;P2;SDS_P1;SDS_P2;PMS_P1;PMS_P2;Temp;Humidity;BMP_temperature;BMP_pressure;BME280_temperature;BME280_humidity;BME280_pressure;Samples;Min_cycle;Max_cycle;Signal;HPM_P1;HPM_P2
2021/03/17 00:01:18;;;;;;;;;;;;;;;18.29;64.28;101722.34;5129130;27;1492;-70
2021/03/17 00:03:44;;;;;;;;;;;;;;;18.28;64.66;101718.81;5110287;27;1363;-70
2021/03/17 00:06:14;;;;;;;;;;;;;;;18.29;64.44;101706.50;5123847;27;1291;-73
2021/03/17 00:08:40;;;;;;;;;;;;;;;18.29;64.80;101714.41;5129298;27;1949;-74
2021/03/17 00:11:08;;;;;;;;;;;;;;;18.28;64.51;101705.63;5128555;27;1334;-70
2021/03/17 00:13:34;;;;;;;;;;;;;;;18.29;64.39;101706.50;5128351;27;1251;-69
2021/03/17 00:16:00;;;;;;;;;;;;;;;18.29;64.41;101693.31;5110111;27;1314;-69
2021/03/17 00:18:27;;;;;;;;;;;;;;;18.30;63.73;101689.78;5128559;27;1362;-70
2021/03/17 00:20:53;;;;;;;;;;;;;;;18.30;64.07;101697.69;5110202;27;1263;-70
2021/03/17 00:23:19;;;;;;;;;;;;;;;18.30;64.56;101692.41;5130098;27;872;-70
2021/03/17 00:25:46;;;;;;;;;;;;;;;18.27;64.01;101682.81;5130508;27;1353;-70
2021/03/17 00:28:14;;;;;;;;;;;;;;;18.26;62.90;101689.03;5131334;27;1957;-70
2021/03/17 00:30:40;;;;;;;;;;;;;;;18.26;62.56;101688.16;5131487;27;1324;-70
2021/03/17 00:33:09;;;;;;;;;;;;;;;18.23;62.48;101686.50;5112536;27;1174;-71
2021/03/17 00:35:36;;;;;;;;;;;;;;;18.22;62.25;101684.78;5131257;27;1294;-70
2021/03/17 00:38:03;;;;;;;;;;;;;;;18.23;61.78;101680.38;5131129;27;766;-70
2021/03/17 00:40:30;;;;;;;;;;;;;;;18.22;61.51;101674.25;5111854;27;1369;-70
2021/03/17 00:42:56;;;;;;;;;;;;;;;18.22;61.01;101673.38;5130940;27;797;-70
2021/03/17 00:45:23;;;;;;;;;;;;;;;18.21;60.44;101666.41;5130701;27;1114;-71
2021/03/17 00:47:49;;;;;;;;;;;;;;;18.21;60.29;101667.25;5111766;27;1973;-71
2021/03/17 00:50:17;;;;;;;;;;;;;;;18.21;60.30;101672.50;5130957;27;1458;-71
2021/03/17 00:52:43;;;;;;;;;;;;;;;18.21;60.36;101661.97;5130810;27;1287;-70
2021/03/17 00:55:10;;;;;;;;;;;;;;;18.21;60.34;101658.50;5112514;27;802;-70
2021/03/17 00:57:37;;;;;;;;;;;;;;;18.19;60.42;101655.03;5130622;27;1295;-70
2021/03/17 01:00:08;;;;;;;;;;;;;;;18.18;60.31;101656.81;5130813;27;987;-71
2021/03/17 01:02:34;;;;;;;;;;;;;;;18.19;60.38;101665.59;5112309;27;1358;-70
2021/03/17 01:05:00;;;;;;;;;;;;;;;18.17;60.37;101657.75;5130645;27;766;-70
2021/03/17 01:07:27;;;;;;;;;;;;;;;18.17;60.59;101659.53;5130633;27;2083;-70
2021/03/17 01:09:53;;;;;;;;;;;;;;;18.16;60.59;101661.31;5112012;27;1313;-70
2021/03/17 01:12:20;;;;;;;;;;;;;;;18.16;60.74;101665.72;5130907;27;1275;-71
2021/03/17 01:14:46;;;;;;;;;;;;;;;18.16;60.76;101656.03;5130546;27;772;-71
2021/03/17 01:17:13;;;;;;;;;;;;;;;18.15;60.77;101651.66;5130547;27;1389;-70
2021/03/17 01:19:40;;;;;;;;;;;;;;;18.14;60.81;101655.25;5130641;27;788;-70
2021/03/17 01:22:06;;;;;;;;;;;;;;;18.14;60.90;101657.88;5094847;27;1437;-70
2021/03/17 01:24:32;;;;;;;;;;;;;;;18.14;60.85;101654.38;5130205;27;905;-70
2021/03/17 01:26:59;;;;;;;;;;;;;;;18.13;60.83;101648.25;5129239;27;1964;-70
2021/03/17 01:29:25;;;;;;;;;;;;;;;18.12;60.77;101641.25;5130305;27;737;-70
2021/03/17 01:31:51;;;;;;;;;;;;;;;18.11;60.74;101636.91;5130455;27;1412;-70
2021/03/17 01:34:18;;;;;;;;;;;;;;;18.11;60.73;101636.03;5130083;27;777;-70
2021/03/17 01:36:44;;;;;;;;;;;;;;;18.11;60.96;101633.41;5130216;27;1387;-70
2021/03/17 01:39:11;;;;;;;;;;;;;;;18.10;60.75;101631.69;5130506;27;734;-70
2021/03/17 01:41:37;;;;;;;;;;;;;;;18.09;60.73;101625.53;5130218;27;1303;-70
2021/03/17 01:44:03;;;;;;;;;;;;;;;18.09;60.79;101624.72;5110712;27;1233;-70
2021/03/17 01:46:30;;;;;;;;;;;;;;;18.09;60.96;101625.53;5094496;27;1297;-70
2021/03/17 01:48:56;;;;;;;;;;;;;;;18.08;61.03;101623.84;5111039;27;2003;-69
2021/03/17 01:51:23;;;;;;;;;;;;;;;18.08;60.97;101625.63;5130036;27;1369;-69
2021/03/17 01:53:49;;;;;;;;;;;;;;;18.08;61.16;101622.97;5129793;27;802;-71
2021/03/17 01:56:16;;;;;;;;;;;;;;;18.08;61.13;101628.25;5129887;27;1250;-70
2021/03/17 01:58:42;;;;;;;;;;;;;;;18.07;61.21;101619.47;5129637;27;1110;-70
2021/03/17 02:01:08;;;;;;;;;;;;;;;18.07;61.24;101621.25;5111352;28;1298;-70
2021/03/17 02:03:35;;;;;;;;;;;;;;;18.07;61.38;101621.25;5129693;27;782;-70
2021/03/17 02:06:01;;;;;;;;;;;;;;;18.06;61.53;101617.75;5094124;28;1287;-70
2021/03/17 02:08:35;;;;;;;;;;;;;;;18.05;61.49;101607.28;5110960;28;1905;-70
2021/03/17 02:11:02;;;;;;;;;;;;;;;18.03;61.59;101600.28;5129548;28;1263;-70
2021/03/17 02:13:47;;;;;;;;;;;;;;;18.05;61.58;101602.00;5129645;28;798;-70
2021/03/17 02:16:23;;;;;;;;;;;;;;;18.04;61.72;101606.41;5129753;28;1302;-70
2021/03/17 02:18:54;;;;;;;;;;;;;;;18.03;61.59;101605.56;5111030;28;778;-71
2021/03/17 02:21:39;;;;;;;;;;;;;;;18.02;61.56;101614.38;5129662;28;1361;-70
2021/03/17 02:24:14;;;;;;;;;;;;;;;18.02;61.71;101616.19;5093946;28;1299;-71
2021/03/17 02:26:59;;;;;;;;;;;;;;;18.01;61.77;101607.41;5129869;28;1343;-70
2021/03/17 02:29:28;;;;;;;;;;;;;;;18.00;61.77;101597.78;5129777;28;1974;-70
2021/03/17 02:32:21;;;;;;;;;;;;;;;18.01;61.71;101601.28;5111121;28;1366;-70
2021/03/17 02:34:47;;;;;;;;;;;;;;;18.00;61.84;101595.13;5125057;28;1246;-70
2021/03/17 02:37:16;;;;;;;;;;;;;;;18.00;61.83;101584.59;5129926;28;1326;-71
2021/03/17 02:39:55;;;;;;;;;;;;;;;17.99;61.61;101571.50;5130267;28;820;-70
2021/03/17 02:42:30;;;;;;;;;;;;;;;17.98;61.80;101573.25;5129542;28;1306;-70
2021/03/17 02:45:02;;;;;;;;;;;;;;;17.99;61.66;101572.31;5129559;28;774;-71
2021/03/17 02:47:30;;;;;;;;;;;;;;;17.97;61.70;101568.91;5129668;28;1977;-71
2021/03/17 02:49:59;;;;;;;;;;;;;;;17.97;61.60;101578.59;5128752;28;1511;-70
2021/03/17 02:52:30;;;;;;;;;;;;;;;17.96;61.82;101583.00;5110992;28;1282;-70
2021/03/17 02:54:57;;;;;;;;;;;;;;;17.96;61.65;101583.00;5130611;27;897;-70
2021/03/17 02:57:25;;;;;;;;;;;;;;;17.95;61.80;101586.56;5133022;27;1415;-70
2021/03/17 02:59:52;;;;;;;;;;;;;;;17.95;61.63;101581.28;5133095;27;774;-70
2021/03/17 03:02:20;;;;;;;;;;;;;;;17.95;61.74;101581.28;5115049;27;1255;-70
2021/03/17 03:04:48;;;;;;;;;;;;;;;17.94;61.65;101579.56;5133232;27;754;-71
2021/03/17 03:07:15;;;;;;;;;;;;;;;17.95;61.64;101581.28;5114798;27;1905;-70
2021/03/17 03:09:42;;;;;;;;;;;;;;;17.94;61.65;101576.06;5133163;27;869;-70
2021/03/17 03:12:11;;;;;;;;;;;;;;;17.94;61.79;101582.19;5133457;27;1396;-70
2021/03/17 03:14:37;;;;;;;;;;;;;;;17.93;61.87;101587.56;5114284;27;1314;-70
2021/03/17 03:17:04;;;;;;;;;;;;;;;17.93;61.90;101583.13;5133549;27;1295;-70
2021/03/17 03:19:37;;;;;;;;;;;;;;;17.93;61.74;101566.47;5133109;27;825;-68
2021/03/17 03:22:04;;;;;;;;;;;;;;;17.92;61.82;101578.78;5133152;27;1350;-71
2021/03/17 03:24:32;;;;;;;;;;;;;;;17.92;61.63;101570.00;5133122;27;825;-71
2021/03/17 03:26:59;;;;;;;;;;;;;;;17.92;61.78;101572.66;5132803;27;1380;-71
2021/03/17 03:29:26;;;;;;;;;;;;;;;17.91;61.78;101574.41;5114481;27;1910;-71
2021/03/17 03:31:52;;;;;;;;;;;;;;;17.90;61.76;101570.06;5133055;27;1377;-72
2021/03/17 03:34:19;;;;;;;;;;;;;;;17.90;61.90;101556.03;5132734;27;1121;-70
2021/03/17 03:36:45;;;;;;;;;;;;;;;17.91;61.95;101548.06;5132775;27;1278;-70
2021/03/17 03:39:13;;;;;;;;;;;;;;;17.89;61.81;101544.66;5114298;27;833;-70
2021/03/17 03:41:39;;;;;;;;;;;;;;;17.90;61.93;101556.03;5113832;27;1279;-71
2021/03/17 03:44:06;;;;;;;;;;;;;;;17.89;61.98;101555.19;5134096;27;793;-70
2021/03/17 03:46:34;;;;;;;;;;;;;;;17.88;61.93;101553.47;5116614;27;1298;-69
2021/03/17 03:49:02;;;;;;;;;;;;;;;17.88;62.01;101558.72;5131730;27;1965;-70
2021/03/17 03:51:30;;;;;;;;;;;;;;;17.88;61.90;101558.72;5132327;27;1286;-70
2021/03/17 03:54:02;;;;;;;;;;;;;;;17.87;61.86;101558.81;5113606;27;1296;-70
2021/03/17 03:56:34;;;;;;;;;;;;;;;17.87;61.94;101553.53;5132207;27;1406;-69
2021/03/17 03:59:05;;;;;;;;;;;;;;;17.87;61.92;101554.38;5113694;27;1395;-70
2021/03/17 04:01:44;;;;;;;;;;;;;;;17.87;61.82;101550.91;5113810;27;1283;-70
2021/03/17 04:04:12;;;;;;;;;;;;;;;17.86;61.67;101536.00;5096618;27;1191;-70
2021/03/17 04:06:39;;;;;;;;;;;;;;;17.85;61.64;101535.13;5131049;27;1219;-70
2021/03/17 04:09:06;;;;;;;;;;;;;;;17.84;61.51;101533.41;5131646;27;1906;-70
2021/03/17 04:11:33;;;;;;;;;;;;;;;17.85;61.56;101548.31;5113187;27;1411;-70
2021/03/17 04:14:04;;;;;;;;;;;;;;;17.84;61.46;101546.59;5131839;27;778;-70
2021/03/17 04:16:35;;;;;;;;;;;;;;;17.84;61.47;101541.31;5132095;27;1259;-70
2021/03/17 04:19:02;;;;;;;;;;;;;;;17.84;61.53;101541.31;5112942;27;1107;-70
2021/03/17 04:21:30;;;;;;;;;;;;;;;17.84;61.38;101532.56;5131638;27;1334;-70
2021/03/17 04:23:58;;;;;;;;;;;;;;;17.82;61.22;101532.63;5131709;27;820;-70
2021/03/17 04:26:26;;;;;;;;;;;;;;;17.82;61.43;101527.34;5113123;27;1268;-70
2021/03/17 04:28:54;;;;;;;;;;;;;;;17.82;61.36;101534.41;5131112;27;1930;-70
2021/03/17 04:31:21;;;;;;;;;;;;;;;17.81;61.26;101525.63;5113006;27;1299;-70
2021/03/17 04:33:47;;;;;;;;;;;;;;;17.81;61.32;101511.63;5131148;27;816;-70
2021/03/17 04:36:14;;;;;;;;;;;;;;;17.81;61.26;101515.09;5131490;27;1290;-70
2021/03/17 04:38:40;;;;;;;;;;;;;;;17.80;61.07;101502.00;5131120;27;879;-70
2021/03/17 04:41:08;;;;;;;;;;;;;;;17.80;61.08;101507.25;5130980;27;1340;-70
2021/03/17 04:43:38;;;;;;;;;;;;;;;17.80;61.16;101508.13;5112312;27;771;-70
2021/03/17 04:46:04;;;;;;;;;;;;;;;17.79;61.03;101514.31;5095619;27;1275;-70
2021/03/17 04:48:33;;;;;;;;;;;;;;;17.79;60.95;101502.91;5130946;27;1893;-70
2021/03/17 04:50:59;;;;;;;;;;;;;;;17.79;60.99;101495.84;5095938;27;1321;-70
2021/03/17 04:53:26;;;;;;;;;;;;;;;17.79;60.98;101500.25;5113045;27;822;-70
2021/03/17 04:55:52;;;;;;;;;;;;;;;17.78;61.19;101499.41;5112852;27;1354;-71
2021/03/17 04:58:23;;;;;;;;;;;;;;;17.78;61.10;101499.41;5131182;27;813;-71
2021/03/17 05:00:50;;;;;;;;;;;;;;;17.77;61.03;101508.25;5112843;27;1275;-71
2021/03/17 05:03:19;;;;;;;;;;;;;;;17.77;61.23;101510.88;5112865;27;782;-69
2021/03/17 05:05:46;;;;;;;;;;;;;;;17.77;61.22;101504.75;5131033;27;1397;-70
2021/03/17 05:08:15;;;;;;;;;;;;;;;17.77;61.25;101504.75;5130720;27;1909;-70
2021/03/17 05:10:42;;;;;;;;;;;;;;;17.75;61.15;101504.78;5100404;28;1438;-70
2021/03/17 05:13:09;;;;;;;;;;;;;;;17.76;61.31;101501.25;5110216;28;1012;-70
2021/03/17 05:15:36;;;;;;;;;;;;;;;17.75;61.27;101494.25;5110381;28;1299;-69
2021/03/17 05:18:03;;;;;;;;;;;;;;;17.75;61.25;101490.78;5109568;28;788;-70
2021/03/17 05:20:30;;;;;;;;;;;;;;;17.75;61.27;101491.63;5110248;28;1318;-70
2021/03/17 05:22:57;;;;;;;;;;;;;;;17.75;61.28;101488.16;5091580;28;1295;-70
2021/03/17 05:25:25;;;;;;;;;;;;;;;17.74;61.25;101484.66;5109756;28;1337;-70
2021/03/17 05:27:55;;;;;;;;;;;;;;;17.74;61.07;101489.94;5109702;28;1910;-69
2021/03/17 05:30:24;;;;;;;;;;;;;;;17.73;61.11;101488.19;5091009;28;1384;-70
2021/03/17 05:32:51;;;;;;;;;;;;;;;17.73;60.97;101485.56;5091016;28;1370;-70
2021/03/17 05:35:17;;;;;;;;;;;;;;;17.73;61.02;101487.34;5109364;28;1057;-70
2021/03/17 05:37:45;;;;;;;;;;;;;;;17.73;61.00;101492.59;5090703;28;1285;-70
2021/03/17 05:40:14;;;;;;;;;;;;;;;17.72;61.07;101494.38;5074087;28;1347;-70
2021/03/17 05:42:41;;;;;;;;;;;;;;;17.72;60.97;101499.66;5074568;28;1385;-70
2021/03/17 05:45:11;;;;;;;;;;;;;;;17.71;61.21;101492.69;5109581;28;821;-71
2021/03/17 05:47:48;;;;;;;;;;;;;;;17.72;61.19;101497.00;5109152;28;1973;-72
2021/03/17 05:50:16;;;;;;;;;;;;;;;17.75;61.90;101485.53;5109334;28;1375;-70
2021/03/17 05:52:43;;;;;;;;;;;;;;;17.75;61.30;101483.72;5090681;28;1596;-71
2021/03/17 05:55:10;;;;;;;;;;;;;;;17.73;61.37;101485.56;5109560;28;774;-72
2021/03/17 05:57:39;;;;;;;;;;;;;;;17.73;61.41;101484.69;5091260;28;1323;-72
2021/03/17 06:00:06;;;;;;;;;;;;;;;17.71;61.32;101471.59;5090844;28;797;-73
2021/03/17 06:02:33;;;;;;;;;;;;;;;17.71;61.28;101471.59;5102517;28;1588;-70
2021/03/17 06:05:00;;;;;;;;;;;;;;;17.75;61.79;101477.63;5090754;28;999;-69
2021/03/17 06:07:30;;;;;;;;;;;;;;;17.73;61.34;101484.69;5087687;28;1987;-68
2021/03/17 06:10:01;;;;;;;;;;;;;;;17.71;61.31;101482.16;5069890;28;814;-70
2021/03/17 06:12:28;;;;;;;;;;;;;;;17.70;61.45;101477.78;5088200;28;1334;-71
2021/03/17 06:14:55;;;;;;;;;;;;;;;17.69;61.32;101481.34;5087781;28;838;-71
2021/03/17 06:17:23;;;;;;;;;;;;;;;17.69;61.39;101478.69;5087549;28;1291;-72
2021/03/17 06:19:56;;;;;;;;;;;;;;;17.70;61.37;101471.66;5087617;28;864;-72
2021/03/17 06:22:23;;;;;;;;;;;;;;;17.69;61.34;101481.34;5088310;28;1263;-74
2021/03/17 06:24:49;;;;;;;;;;;;;;;17.69;61.38;101476.06;5087674;28;865;-73
2021/03/17 06:27:16;;;;;;;;;;;;;;;17.68;61.58;101474.38;5087710;28;1369;-74
2021/03/17 06:29:43;;;;;;;;;;;;;;;17.69;61.31;101469.97;5088386;28;1973;-72
2021/03/17 06:32:09;;;;;;;;;;;;;;;17.75;61.67;101456.53;5073575;28;1279;-72
2021/03/17 06:34:49;;;;;;;;;;;;;;;17.70;61.39;101458.47;5073406;28;1179;-74
2021/03/17 06:37:16;;;;;;;;;;;;;;;17.65;61.42;101452.56;5092238;28;1276;-75
2021/03/17 06:39:43;;;;;;;;;;;;;;;17.35;62.41;101452.84;5091966;28;893;-74
2021/03/17 06:42:10;;;;;;;;;;;;;;;17.29;62.77;101457.50;5073263;28;1457;-72
2021/03/17 06:44:37;;;;;;;;;;;;;;;17.28;62.99;101455.78;5073116;28;1497;-70
2021/03/17 06:47:14;;;;;;;;;;;;;;;17.29;63.23;101457.50;5102165;28;1454;-73
2021/03/17 06:49:57;;;;;;;;;;;;;;;17.29;63.06;101446.97;5091871;28;1531;-77
2021/03/17 06:52:31;;;;;;;;;;;;;;;17.29;63.29;101458.38;5073106;28;1316;-76
2021/03/17 06:55:10;;;;;;;;;;;;;;;17.31;63.52;101451.25;5072984;28;841;-72
2021/03/17 06:57:38;;;;;;;;;;;;;;;17.32;63.60;101452.13;5091854;28;1240;-74
2021/03/17 07:00:16;;;;;;;;;;;;;;;17.32;63.84;101452.13;5073291;28;1127;-77
2021/03/17 07:03:09;;;;;;;;;;;;;;;17.56;63.68;101453.78;5091429;28;1327;-68
2021/03/17 07:05:42;;;;;;;;;;;;;;;17.42;54.29;101456.94;5071069;28;2207;-67
2021/03/17 07:08:10;;;;;;;;;;;;;;;17.36;53.96;101437.88;5090939;28;1970;-67
2021/03/17 07:10:58;;;;;;;;;;;;;;;17.33;52.88;101438.00;5091179;28;1271;-68
2021/03/17 07:13:26;;;;;;;;;;;;;;;17.33;53.16;101440.66;5072438;28;1352;-68
2021/03/17 07:15:52;;;;;;;;;;;;;;;17.39;56.80;101433.34;5091138;28;1380;-68
2021/03/17 07:18:23;;;;;;;;;;;;;;;17.45;56.12;101437.50;5089402;28;1210;-67
2021/03/17 07:20:53;;;;;;;;;;;;;;;17.39;53.42;101440.41;5090959;28;1386;-66
2021/03/17 07:23:21;;;;;;;;;;;;;;;17.45;55.08;101430.47;5073256;28;976;-67
2021/03/17 07:26:06;;;;;;;;;;;;;;;17.46;53.06;101429.56;5091042;28;1381;-70
2021/03/17 07:28:47;;;;;;;;;;;;;;;17.39;54.92;101427.22;5095763;28;1989;-70
2021/03/17 07:31:42;;;;;;;;;;;;;;;17.54;62.65;101425.78;5093197;28;1374;-68
2021/03/17 07:34:09;;;;;;;;;;;;;;;17.50;62.31;101425.03;5090714;28;850;-69
2021/03/17 07:36:41;;;;;;;;;;;;;;;17.49;62.29;101426.81;5103793;27;1320;-70
2021/03/17 07:39:13;;;;;;;;;;;;;;;17.57;61.88;101421.25;5083948;27;1066;-65
2021/03/17 07:41:40;;;;;;;;;;;;;;;17.56;61.65;101414.28;5117822;27;1240;-68
2021/03/17 07:44:08;;;;;;;;;;;;;;;17.52;61.32;101417.06;5093098;28;1373;-68
2021/03/17 07:46:35;;;;;;;;;;;;;;;17.62;61.19;101415.78;5104598;28;1419;-68
2021/03/17 07:49:02;;;;;;;;;;;;;;;17.69;60.97;101415.47;5108072;27;1914;-69
2021/03/17 07:51:29;;;;;;;;;;;;;;;17.77;61.57;101418.66;5129527;27;1402;-70
2021/03/17 07:53:58;;;;;;;;;;;;;;;17.79;61.26;101421.19;5111560;27;1027;-67
2021/03/17 07:56:25;;;;;;;;;;;;;;;18.01;57.31;101417.59;5131361;27;1299;-67
2021/03/17 07:58:52;;;;;;;;;;;;;;;17.86;59.85;101422.66;5113897;27;1096;-68
2021/03/17 08:01:20;;;;;;;;;;;;;;;18.18;60.86;101418.66;5131284;27;1373;-73
2021/03/17 08:03:47;;;;;;;;;;;;;;;18.26;60.58;101427.06;5129689;27;1087;-70
2021/03/17 08:06:15;;;;;;;;;;;;;;;18.10;57.77;101442.69;5131058;27;1286;-70
2021/03/17 08:08:42;;;;;;;;;;;;;;;18.02;54.94;101429.84;5130811;27;1913;-69
2021/03/17 08:11:11;;;;;;;;;;;;;;;17.95;55.97;101427.53;5130818;27;1322;-68
2021/03/17 08:13:37;;;;;;;;;;;;;;;17.94;56.32;101433.72;5110940;27;794;-68
2021/03/17 08:16:05;;;;;;;;;;;;;;;17.93;56.54;101422.31;5129979;27;1262;-69
2021/03/17 08:18:32;;;;;;;;;;;;;;;17.93;57.15;101422.31;5130788;27;857;-70
2021/03/17 08:20:59;;;;;;;;;;;;;;;17.92;57.23;101427.69;5131361;27;1290;-67
2021/03/17 08:23:45;;;;;;;;;;;;;;;17.91;57.14;101415.41;5131647;27;916;-67
2021/03/17 08:26:12;;;;;;;;;;;;;;;17.88;56.80;101399.72;5130625;27;1300;-67
2021/03/17 08:28:46;;;;;;;;;;;;;;;17.87;56.83;101411.22;5130896;27;1917;-68
2021/03/17 08:31:33;;;;;;;;;;;;;;;17.86;56.55;101412.13;5131286;27;1298;-67
2021/03/17 08:34:19;;;;;;;;;;;;;;;17.84;56.74;101406.91;5131204;27;1142;-68
2021/03/17 08:36:45;;;;;;;;;;;;;;;17.83;56.63;101402.56;5131190;27;1365;-67
2021/03/17 08:39:14;;;;;;;;;;;;;;;17.80;56.71;101389.53;5131024;27;1130;-67
2021/03/17 08:41:41;;;;;;;;;;;;;;;17.80;56.89;101386.91;5095503;27;1906;-68
2021/03/17 08:44:11;;;;;;;;;;;;;;;17.79;56.90;101376.41;5112232;27;769;-68
2021/03/17 08:46:38;;;;;;;;;;;;;;;17.77;56.92;101381.75;5130941;27;1357;-68
2021/03/17 08:49:06;;;;;;;;;;;;;;;17.76;56.91;101374.75;5130702;27;1894;-68
2021/03/17 08:51:45;;;;;;;;;;;;;;;17.74;56.86;101376.63;5130347;27;1383;-69
2021/03/17 08:54:30;;;;;;;;;;;;;;;17.73;56.73;101374.91;5130151;27;828;-68
2021/03/17 08:56:58;;;;;;;;;;;;;;;17.72;56.93;101372.34;5130796;27;1377;-68
2021/03/17 08:59:38;;;;;;;;;;;;;;;17.72;57.10;101365.25;5130643;27;811;-69
2021/03/17 09:02:05;;;;;;;;;;;;;;;17.71;56.95;101362.72;5112381;27;1632;-69
2021/03/17 09:04:48;;;;;;;;;;;;;;;17.70;57.14;101361.84;5094769;27;1648;-69
2021/03/17 09:07:15;;;;;;;;;;;;;;;17.69;57.16;101360.13;5130730;27;1447;-69
2021/03/17 09:09:44;;;;;;;;;;;;;;;17.68;57.41;101365.47;5130580;27;1960;-68
2021/03/17 09:12:11;;;;;;;;;;;;;;;17.67;57.30;101355.84;5130661;27;1287;-69
2021/03/17 09:14:38;;;;;;;;;;;;;;;17.68;57.37;101354.94;5130407;27;822;-68
2021/03/17 09:17:18;;;;;;;;;;;;;;;17.66;57.58;101351.53;5111788;27;1263;-69
2021/03/17 09:20:03;;;;;;;;;;;;;;;17.65;57.72;101365.59;5130284;27;1090;-69
2021/03/17 09:22:30;;;;;;;;;;;;;;;17.64;57.79;101364.75;5130380;27;1385;-68
2021/03/17 09:24:56;;;;;;;;;;;;;;;17.64;57.94;101369.16;5130105;27;833;-68
2021/03/17 09:27:22;;;;;;;;;;;;;;;17.63;57.78;101370.09;5111707;27;1290;-68
2021/03/17 09:29:59;;;;;;;;;;;;;;;17.63;57.86;101378.84;5130161;27;1909;-68
2021/03/17 09:32:25;;;;;;;;;;;;;;;17.61;57.82;101370.16;5130281;27;1376;-69
2021/03/17 09:34:55;;;;;;;;;;;;;;;17.61;58.04;101364.88;5130050;27;1184;-69
2021/03/17 09:37:21;;;;;;;;;;;;;;;17.60;57.84;101347.34;5111590;27;1293;-69
2021/03/17 09:39:47;;;;;;;;;;;;;;;17.61;58.17;101335.03;5129682;27;1039;-69
2021/03/17 09:42:17;;;;;;;;;;;;;;;17.60;58.17;101328.91;5111155;27;1310;-69
2021/03/17 09:44:44;;;;;;;;;;;;;;;17.60;57.94;101328.91;5111208;27;1682;-68
2021/03/17 09:47:10;;;;;;;;;;;;;;;17.59;58.29;101326.34;5111271;27;1326;-68
2021/03/17 09:49:36;;;;;;;;;;;;;;;17.60;58.09;101326.28;5111440;27;1941;-68
2021/03/17 09:52:06;;;;;;;;;;;;;;;17.58;58.11;101322.00;5129917;27;1280;-68
2021/03/17 09:54:33;;;;;;;;;;;;;;;17.58;58.12;101325.50;5129749;27;1031;-68
2021/03/17 09:57:04;;;;;;;;;;;;;;;17.57;57.98;101307.97;5129739;27;1400;-69
2021/03/17 09:59:38;;;;;;;;;;;;;;;17.57;58.00;101279.00;5129821;27;822;-68
2021/03/17 10:02:04;;;;;;;;;;;;;;;17.57;57.82;101275.53;5129515;27;1274;-69
2021/03/17 10:04:35;;;;;;;;;;;;;;;17.57;57.94;101278.16;5128814;27;1081;-70
2021/03/17 10:07:03;;;;;;;;;;;;;;;17.57;58.27;101276.34;5110768;27;1394;-70
2021/03/17 10:09:34;;;;;;;;;;;;;;;17.58;58.43;101267.53;5129446;28;1967;-68
2021/03/17 10:12:00;;;;;;;;;;;;;;;17.57;58.58;101268.44;5129593;28;1361;-69
2021/03/17 10:14:27;;;;;;;;;;;;;;;17.58;59.08;101258.78;5094243;28;1256;-68
2021/03/17 10:16:54;;;;;;;;;;;;;;;17.57;58.95;101263.19;5110662;28;1301;-68
2021/03/17 10:19:21;;;;;;;;;;;;;;;17.57;59.25;101254.44;5110714;28;1371;-68
2021/03/17 10:21:52;;;;;;;;;;;;;;;17.58;59.04;101249.09;5110560;28;1362;-68
2021/03/17 10:24:29;;;;;;;;;;;;;;;17.57;59.21;101231.56;5129242;28;766;-68
2021/03/17 10:26:55;;;;;;;;;;;;;;;17.57;59.28;101242.09;5110985;28;1377;-69
2021/03/17 10:29:21;;;;;;;;;;;;;;;17.56;59.49;101224.63;5110414;28;1996;-69
2021/03/17 10:31:50;;;;;;;;;;;;;;;17.58;59.54;101238.56;5129394;28;1290;-68
2021/03/17 10:34:17;;;;;;;;;;;;;;;17.58;59.21;101227.16;5129325;28;1102;-68
2021/03/17 10:36:44;;;;;;;;;;;;;;;17.57;59.36;101223.66;5129100;28;1369;-68
2021/03/17 10:39:10;;;;;;;;;;;;;;;17.58;59.44;101219.25;5129332;28;1111;-68
2021/03/17 10:41:46;;;;;;;;;;;;;;;17.57;59.58;101215.75;5110768;28;1369;-69
2021/03/17 10:44:13;;;;;;;;;;;;;;;17.59;59.93;101197.28;5128925;28;1265;-68
2021/03/17 10:46:54;;;;;;;;;;;;;;;17.59;59.95;101198.13;5128845;28;1384;-69
2021/03/17 10:49:21;;;;;;;;;;;;;;;17.78;59.57;101198.16;5110322;28;1933;-67
2021/03/17 10:51:56;;;;;;;;;;;;;;;17.73;59.15;101200.97;5109826;28;1693;-68
2021/03/17 10:54:42;;;;;;;;;;;;;;;17.81;56.70;101198.03;5080940;28;1507;-69
2021/03/17 10:57:21;;;;;;;;;;;;;;;17.85;55.25;101197.78;5116862;28;1298;-68
2021/03/17 10:59:48;;;;;;;;;;;;;;;17.87;53.00;101195.94;5113577;28;1219;-68
2021/03/17 11:02:30;;;;;;;;;;;;;;;17.90;49.47;101181.78;5127264;28;1512;-67
2021/03/17 11:05:06;;;;;;;;;;;;;;;17.87;49.34;101181.91;5088034;28;1997;-69
2021/03/17 11:07:47;;;;;;;;;;;;;;;17.83;48.46;101191.75;5107323;28;1369;-67
2021/03/17 11:10:28;;;;;;;;;;;;;;;17.85;48.21;101187.25;5068292;28;1909;-69
2021/03/17 11:12:55;;;;;;;;;;;;;;;17.81;48.07;101190.94;5107306;28;1622;-69
2021/03/17 11:15:31;;;;;;;;;;;;;;;17.79;48.80;101208.63;5127830;27;1096;-69
2021/03/17 11:17:59;;;;;;;;;;;;;;;17.84;46.35;101222.41;5112321;27;1126;-68
2021/03/17 11:20:26;;;;;;;;;;;;;;;17.83;45.19;101236.53;5112609;27;1291;-68
2021/03/17 11:22:53;;;;;;;;;;;;;;;17.73;45.36;101258.94;5130294;27;999;-69
2021/03/17 11:25:26;;;;;;;;;;;;;;;17.73;47.53;101305.53;5094284;28;1341;-70
2021/03/17 11:27:52;;;;;;;;;;;;;;;17.60;47.24;101294.66;5091076;28;1832;-69
2021/03/17 11:30:19;;;;;;;;;;;;;;;17.54;47.72;101289.63;5090328;28;1969;-68
2021/03/17 11:32:46;;;;;;;;;;;;;;;17.51;47.25;101300.28;5100132;28;1346;-68
2021/03/17 11:35:14;;;;;;;;;;;;;;;17.47;46.79;101304.00;5110200;28;1107;-69
2021/03/17 11:37:40;;;;;;;;;;;;;;;17.38;47.30;101307.03;5110386;27;1330;-68
2021/03/17 11:40:08;;;;;;;;;;;;;;;17.43;47.47;101315.56;5121700;27;1053;-69
2021/03/17 11:42:34;;;;;;;;;;;;;;;17.54;48.54;101309.88;5091299;28;1279;-68
2021/03/17 11:45:13;;;;;;;;;;;;;;;17.61;48.39;101327.13;5106558;27;1040;-68
2021/03/17 11:47:40;;;;;;;;;;;;;;;17.61;49.15;101333.25;5109682;27;1314;-68
2021/03/17 11:50:06;;;;;;;;;;;;;;;17.69;49.57;101335.59;5108730;28;1914;-68
2021/03/17 11:52:37;;;;;;;;;;;;;;;17.80;49.85;101334.19;5110239;28;1271;-72
2021/03/17 11:55:03;;;;;;;;;;;;;;;17.77;50.32;101334.31;5092041;28;1239;-70
2021/03/17 11:57:31;;;;;;;;;;;;;;;17.75;50.63;101341.41;5091149;28;1315;-72
2021/03/17 11:59:57;;;;;;;;;;;;;;;17.74;51.10;101344.13;5090650;28;992;-72
2021/03/17 12:02:23;;;;;;;;;;;;;;;17.78;51.61;101349.19;5108682;28;1267;-75
2021/03/17 12:04:50;;;;;;;;;;;;;;;17.83;52.17;101343.72;5108777;27;999;-73
2021/03/17 12:07:17;;;;;;;;;;;;;;;17.80;52.55;101346.50;5109500;28;1271;-72
2021/03/17 12:09:43;;;;;;;;;;;;;;;17.79;53.02;101348.28;5109946;27;1974;-72
2021/03/17 12:12:10;;;;;;;;;;;;;;;17.81;53.51;101337.69;5092645;28;1294;-71
2021/03/17 12:14:36;;;;;;;;;;;;;;;17.76;53.58;101322.06;5100390;28;1140;-70
2021/03/17 12:17:03;;;;;;;;;;;;;;;17.83;54.03;101341.09;5119691;27;1270;-73
2021/03/17 12:19:30;;;;;;;;;;;;;;;17.85;54.12;101331.34;5110764;27;1043;-72
2021/03/17 12:21:56;;;;;;;;;;;;;;;17.86;54.90;101333.06;5110099;28;1275;-70
2021/03/17 12:24:23;;;;;;;;;;;;;;;17.93;54.83;101335.34;5110603;28;987;-71
2021/03/17 12:26:50;;;;;;;;;;;;;;;17.91;54.83;101326.66;5110426;28;1318;-73
2021/03/17 12:29:18;;;;;;;;;;;;;;;17.98;55.09;101333.38;5090756;28;1909;-71
2021/03/17 12:31:45;;;;;;;;;;;;;;;18.06;55.02;101329.53;5109980;28;1599;-73
2021/03/17 12:34:12;;;;;;;;;;;;;;;18.08;55.37;101328.56;5091550;28;1037;-70
2021/03/17 12:36:39;;;;;;;;;;;;;;;18.11;55.57;101333.69;5110218;28;1299;-68
2021/03/17 12:39:05;;;;;;;;;;;;;;;18.12;55.80;101324.00;5109665;28;999;-69
2021/03/17 12:41:32;;;;;;;;;;;;;;;18.07;56.26;101320.69;5110516;28;1378;-69
2021/03/17 12:43:58;;;;;;;;;;;;;;;18.03;55.94;101325.25;5109825;28;1037;-70
2021/03/17 12:46:25;;;;;;;;;;;;;;;18.02;56.26;101319.13;5110304;28;1377;-70
2021/03/17 12:48:52;;;;;;;;;;;;;;;18.00;55.96;101310.44;5109438;28;1905;-73
2021/03/17 12:51:21;;;;;;;;;;;;;;;18.02;56.27;101310.38;5090886;28;1235;-73
2021/03/17 12:53:49;;;;;;;;;;;;;;;18.04;56.95;101313.78;5109298;28;1145;-70
2021/03/17 12:56:18;;;;;;;;;;;;;;;18.05;56.65;101306.75;5091360;28;1451;-71
2021/03/17 12:58:46;;;;;;;;;;;;;;;18.11;56.97;101309.09;5090632;28;1436;-73